Cinderella 1 — SBLK — position and weather

sailwx.info

Track history (hours):
 
Tides and Currents Weather Stations Pressure Air Temp Water Temp Dewpoint Dewpoint Depression Visibility Wind Speed Wind Dir Waves Ship Positions

Cinderella 1

Last reported at 2015-Apr-27 23:33 UTC. Time now 2015-Apr-28 00:34 UTC.
Position N 59°20' E 018°05'.

Length 42 m; draft 1.1 m.

Type: Passenger vessel. MMSI: 265524530.

Date/timePositionNaut miles runAvg speedWind from/ knotsBaromVisibWave heightAir tempDewpointWater temp
2015-Apr-27 23:33N 59°20' E 018°05'0 0.0
2015-Apr-27 22:34N 59°20' E 018°05'0 0.0
2015-Apr-27 21:33N 59°20' E 018°05'0 0.0
2015-Apr-27 20:34N 59°20' E 018°05'0 0.0
2015-Apr-27 19:34N 59°20' E 018°05'0 0.0
2015-Apr-27 18:34N 59°20' E 018°05'0 0.0
2015-Apr-27 17:34N 59°20' E 018°05'0 0.0
2015-Apr-27 16:34N 59°20' E 018°05'0 0.0
2015-Apr-27 15:34N 59°20' E 018°05'0 0.0
2015-Apr-27 14:34N 59°20' E 018°05'6 0.8
2015-Apr-27 07:32N 59°22' E 018°16'6 5.9
2015-Apr-27 06:34N 59°20' E 018°05'0 0.0
2015-Apr-27 05:34N 59°20' E 018°05'0 0.0
2015-Apr-27 04:33N 59°20' E 018°05'0 0.0
2015-Apr-27 03:34N 59°20' E 018°05'0 0.0
2015-Apr-27 02:34N 59°20' E 018°05'0 0.0
2015-Apr-27 01:34N 59°20' E 018°05'0 0.0
2015-Apr-27 00:34N 59°20' E 018°05'0 0.0
2015-Apr-26 23:33N 59°20' E 018°05'0 0.0
2015-Apr-26 22:34N 59°20' E 018°05'0 0.0
2015-Apr-26 21:34N 59°20' E 018°05'0 0.0
2015-Apr-26 20:33N 59°20' E 018°05'0 0.0
2015-Apr-26 19:33N 59°20' E 018°05'0 0.0
2015-Apr-26 18:34N 59°20' E 018°05'0 0.0
2015-Apr-26 17:34N 59°20' E 018°05'0 0.0
2015-Apr-26 16:34N 59°20' E 018°05'4 4.2
2015-Apr-26 15:33N 59°20' E 018°13'2 0.5
2015-Apr-26 11:32N 59°22' E 018°16'6 6.1
2015-Apr-26 10:34N 59°20' E 018°05'0 0.0
2015-Apr-26 09:34N 59°20' E 018°05'0 0.0
2015-Apr-26 08:34N 59°20' E 018°05'0 0.0
2015-Apr-26 07:34N 59°20' E 018°05'0 0.0
2015-Apr-26 06:34N 59°20' E 018°05'0 0.0
2015-Apr-26 05:34N 59°20' E 018°05'0 0.0
2015-Apr-26 04:34N 59°20' E 018°05'0 0.0
2015-Apr-26 03:34N 59°20' E 018°05'0 0.0
2015-Apr-26 02:33N 59°20' E 018°05'0 0.0
2015-Apr-26 01:34N 59°20' E 018°05'0 0.0
2015-Apr-26 00:34N 59°20' E 018°05'0 0.0
2015-Apr-25 23:34N 59°20' E 018°05'0 0.0
2015-Apr-25 22:34N 59°20' E 018°05'0 0.0
2015-Apr-25 21:34N 59°20' E 018°05'0 0.0
2015-Apr-25 20:34N 59°20' E 018°05'0 0.0
2015-Apr-25 19:34N 59°20' E 018°05'0 0.0
2015-Apr-25 18:34N 59°20' E 018°05'0 0.0
2015-Apr-25 17:33N 59°20' E 018°05'0 0.0
2015-Apr-25 16:34N 59°20' E 018°05'0 0.0
2015-Apr-25 15:34N 59°20' E 018°05'0 0.0
2015-Apr-25 14:33N 59°20' E 018°05'0 0.2
2015-Apr-25 13:33N 59°20' E 018°05'6 1.1
2015-Apr-25 08:32N 59°22' E 018°16'6 6.0
2015-Apr-25 07:33N 59°20' E 018°05'0 0.0
2015-Apr-24 23:14N 59°20' E 018°05'0 0.0
2015-Apr-24 22:33N 59°20' E 018°05'0 0.0
2015-Apr-24 21:33N 59°20' E 018°05'3 2.9
2015-Apr-24 20:33N 59°19' E 018°10'3 0.5
2015-Apr-24 15:31N 59°21' E 018°14'5 5.2
2015-Apr-24 14:33N 59°20' E 018°05'0 0.0
2015-Apr-24 13:34N 59°20' E 018°05'0 0.0
2015-Apr-24 12:33N 59°20' E 018°05'0 0.0
2015-Apr-24 11:34N 59°20' E 018°05'0 0.0
2015-Apr-24 10:34N 59°20' E 018°05'0 0.0
2015-Apr-24 09:34N 59°20' E 018°05'0 0.0
2015-Apr-24 08:33N 59°20' E 018°05'0 0.0
2015-Apr-24 07:34N 59°20' E 018°05'0 0.0
2015-Apr-24 06:33N 59°20' E 018°05'0 0.0
2015-Apr-24 05:33N 59°20' E 018°05'0 0.0
2015-Apr-24 04:34N 59°20' E 018°05'0 0.0
2015-Apr-24 03:33N 59°20' E 018°05'0 0.0
2015-Apr-24 02:33N 59°20' E 018°05'0 0.0
2015-Apr-24 01:33N 59°20' E 018°05'0 0.0
2015-Apr-24 00:34N 59°20' E 018°05'0 0.0
2015-Apr-23 23:34N 59°20' E 018°05'0 0.0
2015-Apr-23 22:34N 59°20' E 018°05'0 0.0
2015-Apr-23 21:34N 59°20' E 018°05'0 0.0
2015-Apr-23 20:34N 59°20' E 018°05'0 0.0
2015-Apr-23 19:34N 59°20' E 018°05'0 0.0
2015-Apr-23 18:34N 59°20' E 018°05'0 0.0
2015-Apr-23 17:33N 59°20' E 018°05'0 0.0
2015-Apr-23 16:34N 59°20' E 018°05'0 0.0
2015-Apr-23 15:34N 59°20' E 018°05'0 0.0
2015-Apr-23 14:33N 59°20' E 018°05'0 0.0
2015-Apr-23 13:33N 59°20' E 018°05'0 0.0
2015-Apr-23 12:33N 59°20' E 018°05'0 0.0
2015-Apr-23 11:33N 59°20' E 018°05'0 0.0
2015-Apr-23 10:33N 59°20' E 018°05'0 0.0
2015-Apr-23 09:33N 59°20' E 018°05'0 0.0
2015-Apr-23 08:33N 59°20' E 018°05'0 0.0
2015-Apr-23 07:33N 59°20' E 018°05'0 0.0
2015-Apr-23 06:33N 59°20' E 018°05'0 0.0
2015-Apr-23 05:33N 59°20' E 018°05'0 0.0
2015-Apr-23 04:33N 59°20' E 018°05'0 0.0
2015-Apr-23 03:33N 59°20' E 018°05'0 0.0
2015-Apr-23 02:33N 59°20' E 018°05'0 0.0
2015-Apr-23 01:33N 59°20' E 018°05'0 0.0
2015-Apr-23 00:34N 59°20' E 018°05'0 0.0
2015-Apr-22 23:34N 59°20' E 018°05'0 0.0
2015-Apr-22 22:33N 59°20' E 018°05'0 0.0
2015-Apr-22 21:33N 59°20' E 018°05'0 0.0
2015-Apr-22 20:33N 59°20' E 018°05'0 0.0
2015-Apr-22 19:33N 59°20' E 018°05'0 0.0
2015-Apr-22 18:33N 59°20' E 018°05'0 0.0
2015-Apr-22 17:33N 59°20' E 018°05'0 0.0
2015-Apr-22 16:34N 59°20' E 018°05'0 0.0
2015-Apr-22 15:33N 59°20' E 018°05'0 0.0
2015-Apr-22 14:33N 59°20' E 018°05'0 0.0
2015-Apr-22 13:33N 59°20' E 018°05'0 0.0
2015-Apr-22 12:33N 59°20' E 018°05'0 0.0
2015-Apr-22 11:33N 59°20' E 018°05'0 0.0
2015-Apr-22 10:33N 59°20' E 018°05'0 0.0
2015-Apr-22 09:33N 59°20' E 018°05'0 0.0
2015-Apr-22 08:33N 59°20' E 018°05'0 0.0
2015-Apr-22 07:33N 59°20' E 018°05'0 0.0
2015-Apr-22 06:33N 59°20' E 018°05'0 0.0
2015-Apr-22 05:33N 59°20' E 018°05'0 0.0
2015-Apr-22 04:33N 59°20' E 018°05'0 0.0
2015-Apr-22 03:33N 59°20' E 018°05'0 0.0
2015-Apr-22 02:33N 59°20' E 018°05'0 0.0
2015-Apr-22 01:33N 59°20' E 018°05'0 0.0
2015-Apr-22 00:33N 59°20' E 018°05'0 0.0
2015-Apr-21 23:33N 59°20' E 018°05'0 0.0
2015-Apr-21 22:33N 59°20' E 018°05'0 0.0
2015-Apr-21 21:33N 59°20' E 018°05'0 0.0
2015-Apr-21 20:33N 59°20' E 018°05'0 0.0
2015-Apr-21 19:33N 59°20' E 018°05'0 0.0
2015-Apr-21 18:33N 59°20' E 018°05'0 0.0
2015-Apr-21 17:34N 59°20' E 018°05'0 0.0
2015-Apr-21 16:33N 59°20' E 018°05'0 0.0
2015-Apr-21 15:33N 59°20' E 018°05'0 0.0
2015-Apr-21 14:33N 59°20' E 018°05'0 0.0
2015-Apr-21 13:33N 59°20' E 018°05'0 0.0
2015-Apr-21 12:33N 59°20' E 018°05'0 0.0
2015-Apr-21 11:33N 59°20' E 018°05'0 0.0
2015-Apr-21 10:34N 59°20' E 018°05'0 0.0
2015-Apr-21 09:33N 59°20' E 018°05'0 0.0
2015-Apr-21 08:33N 59°20' E 018°05'0 0.0
2015-Apr-21 07:33N 59°20' E 018°05'0 0.0
2015-Apr-21 06:33N 59°20' E 018°05'0 0.0
2015-Apr-21 05:34N 59°20' E 018°05'0 0.0
2015-Apr-21 04:33N 59°20' E 018°05'0 0.0
2015-Apr-21 03:33N 59°20' E 018°05'0 0.0
2015-Apr-21 02:33N 59°20' E 018°05'0 0.0
2015-Apr-21 01:33N 59°20' E 018°05'0 0.0
2015-Apr-21 00:33N 59°20' E 018°05'0 0.0
2015-Apr-20 23:33N 59°20' E 018°05'0 0.0
2015-Apr-20 22:33N 59°20' E 018°05'0 0.0
2015-Apr-20 21:33N 59°20' E 018°05'0 0.0
2015-Apr-20 20:33N 59°20' E 018°05'0 0.0
2015-Apr-20 19:33N 59°20' E 018°05'0 0.0
2015-Apr-20 18:33N 59°20' E 018°05'0 0.0
2015-Apr-20 17:34N 59°20' E 018°05'0 0.0
2015-Apr-20 16:33N 59°20' E 018°05'0 0.0
2015-Apr-20 15:33N 59°20' E 018°05'0 0.0
2015-Apr-20 14:33N 59°20' E 018°05'0 0.0
2015-Apr-20 13:33N 59°20' E 018°05'0 0.0
2015-Apr-20 12:34N 59°20' E 018°05'0 0.0
2015-Apr-20 11:33N 59°20' E 018°05'0 0.0
2015-Apr-20 10:33N 59°20' E 018°05'0 0.0
2015-Apr-20 09:33N 59°20' E 018°05'0 0.0
2015-Apr-20 08:33N 59°20' E 018°05'0 0.0
2015-Apr-20 07:33N 59°20' E 018°05'0 0.0
2015-Apr-20 06:33N 59°20' E 018°05'0 0.0
2015-Apr-20 05:33N 59°20' E 018°05'0 0.0
2015-Apr-20 04:33N 59°20' E 018°05'0 0.0
2015-Apr-20 03:33N 59°20' E 018°05'0 0.0
2015-Apr-20 02:33N 59°20' E 018°05'0 0.0
2015-Apr-20 01:33N 59°20' E 018°05'0 0.0
2015-Apr-20 00:33N 59°20' E 018°05'0 0.0
2015-Apr-19 23:33N 59°20' E 018°05'0 0.0
2015-Apr-19 22:33N 59°20' E 018°05'0 0.0
2015-Apr-19 21:33N 59°20' E 018°05'0 0.0
2015-Apr-19 20:33N 59°20' E 018°05'0 0.0
2015-Apr-19 19:33N 59°20' E 018°05'0 0.0
2015-Apr-19 18:33N 59°20' E 018°05'0 0.0
2015-Apr-19 17:33N 59°20' E 018°05'0 0.0
2015-Apr-19 16:34N 59°20' E 018°05'3 3.2
2015-Apr-19 15:33N 59°20' E 018°11'3 0.8
2015-Apr-19 11:29N 59°22' E 018°16'6 6.4
2015-Apr-19 10:33N 59°20' E 018°05'0 0.0
2015-Apr-19 09:33N 59°20' E 018°05'0 0.0
2015-Apr-19 08:33N 59°20' E 018°05'0 0.0
2015-Apr-19 07:33N 59°20' E 018°05'0 0.0
2015-Apr-19 06:33N 59°20' E 018°05'0 0.0
2015-Apr-19 05:33N 59°20' E 018°05'0 0.0
2015-Apr-19 04:33N 59°20' E 018°05'0 0.0
2015-Apr-19 03:33N 59°20' E 018°05'0 0.0
2015-Apr-19 02:33N 59°20' E 018°05'0 0.0
2015-Apr-19 01:33N 59°20' E 018°05'0 0.0
2015-Apr-19 00:33N 59°20' E 018°05'0 0.0
2015-Apr-18 23:33N 59°20' E 018°05'0 0.0
2015-Apr-18 22:33N 59°20' E 018°05'0 0.0
2015-Apr-18 21:33N 59°20' E 018°05'0 0.0
2015-Apr-18 20:33N 59°20' E 018°05'0 0.0
2015-Apr-18 19:33N 59°20' E 018°05'0 0.0
2015-Apr-18 18:33N 59°20' E 018°05'0 0.0
2015-Apr-18 17:33N 59°20' E 018°05'0 0.0
2015-Apr-18 16:33N 59°20' E 018°05'0 0.0
2015-Apr-18 15:33N 59°20' E 018°05'0 0.0
2015-Apr-18 14:33N 59°20' E 018°05'0 0.5
2015-Apr-18 13:33N 59°20' E 018°05'6 1.1
2015-Apr-18 08:32N 59°22' E 018°15'6 5.9
2015-Apr-18 07:33N 59°20' E 018°05'  
Track history (hours):
 
Tides and Currents Weather Stations Pressure Air Temp Water Temp Dewpoint Dewpoint Depression Visibility Wind Speed Wind Dir Waves Ship Positions

Cinderella 1

Last reported at 2015-Apr-27 23:33 UTC. Time now 2015-Apr-28 00:34 UTC.
Position N 59°20' E 018°05'.

Length 42 m; draft 1.1 m.

Type: Passenger vessel. MMSI: 265524530.

Date/timePositionNaut miles runAvg speedWind from/ knotsBaromVisibWave heightAir tempDewpointWater temp
2015-Apr-27 23:33N 59°20' E 018°05'0 0.0
2015-Apr-27 22:34N 59°20' E 018°05'0 0.0
2015-Apr-27 21:33N 59°20' E 018°05'0 0.0
2015-Apr-27 20:34N 59°20' E 018°05'0 0.0
2015-Apr-27 19:34N 59°20' E 018°05'0 0.0
2015-Apr-27 18:34N 59°20' E 018°05'0 0.0
2015-Apr-27 17:34N 59°20' E 018°05'0 0.0
2015-Apr-27 16:34N 59°20' E 018°05'0 0.0
2015-Apr-27 15:34N 59°20' E 018°05'0 0.0
2015-Apr-27 14:34N 59°20' E 018°05'6 0.8
2015-Apr-27 07:32N 59°22' E 018°16'6 5.9
2015-Apr-27 06:34N 59°20' E 018°05'0 0.0
2015-Apr-27 05:34N 59°20' E 018°05'0 0.0
2015-Apr-27 04:33N 59°20' E 018°05'0 0.0
2015-Apr-27 03:34N 59°20' E 018°05'0 0.0
2015-Apr-27 02:34N 59°20' E 018°05'0 0.0
2015-Apr-27 01:34N 59°20' E 018°05'0 0.0
2015-Apr-27 00:34N 59°20' E 018°05'0 0.0
2015-Apr-26 23:33N 59°20' E 018°05'0 0.0
2015-Apr-26 22:34N 59°20' E 018°05'0 0.0
2015-Apr-26 21:34N 59°20' E 018°05'0 0.0
2015-Apr-26 20:33N 59°20' E 018°05'0 0.0
2015-Apr-26 19:33N 59°20' E 018°05'0 0.0
2015-Apr-26 18:34N 59°20' E 018°05'0 0.0
2015-Apr-26 17:34N 59°20' E 018°05'0 0.0
2015-Apr-26 16:34N 59°20' E 018°05'4 4.2
2015-Apr-26 15:33N 59°20' E 018°13'2 0.5
2015-Apr-26 11:32N 59°22' E 018°16'6 6.1
2015-Apr-26 10:34N 59°20' E 018°05'0 0.0
2015-Apr-26 09:34N 59°20' E 018°05'0 0.0
2015-Apr-26 08:34N 59°20' E 018°05'0 0.0
2015-Apr-26 07:34N 59°20' E 018°05'0 0.0
2015-Apr-26 06:34N 59°20' E 018°05'0 0.0
2015-Apr-26 05:34N 59°20' E 018°05'0 0.0
2015-Apr-26 04:34N 59°20' E 018°05'0 0.0
2015-Apr-26 03:34N 59°20' E 018°05'0 0.0
2015-Apr-26 02:33N 59°20' E 018°05'0 0.0
2015-Apr-26 01:34N 59°20' E 018°05'0 0.0
2015-Apr-26 00:34N 59°20' E 018°05'0 0.0
2015-Apr-25 23:34N 59°20' E 018°05'0 0.0
2015-Apr-25 22:34N 59°20' E 018°05'0 0.0
2015-Apr-25 21:34N 59°20' E 018°05'0 0.0
2015-Apr-25 20:34N 59°20' E 018°05'0 0.0
2015-Apr-25 19:34N 59°20' E 018°05'0 0.0
2015-Apr-25 18:34N 59°20' E 018°05'0 0.0
2015-Apr-25 17:33N 59°20' E 018°05'0 0.0
2015-Apr-25 16:34N 59°20' E 018°05'0 0.0
2015-Apr-25 15:34N 59°20' E 018°05'0 0.0
2015-Apr-25 14:33N 59°20' E 018°05'0 0.2
2015-Apr-25 13:33N 59°20' E 018°05'6 1.1
2015-Apr-25 08:32N 59°22' E 018°16'6 6.0
2015-Apr-25 07:33N 59°20' E 018°05'0 0.0
2015-Apr-24 23:14N 59°20' E 018°05'0 0.0
2015-Apr-24 22:33N 59°20' E 018°05'0 0.0
2015-Apr-24 21:33N 59°20' E 018°05'3 2.9
2015-Apr-24 20:33N 59°19' E 018°10'3 0.5
2015-Apr-24 15:31N 59°21' E 018°14'5 5.2
2015-Apr-24 14:33N 59°20' E 018°05'0 0.0
2015-Apr-24 13:34N 59°20' E 018°05'0 0.0
2015-Apr-24 12:33N 59°20' E 018°05'0 0.0
2015-Apr-24 11:34N 59°20' E 018°05'0 0.0
2015-Apr-24 10:34N 59°20' E 018°05'0 0.0
2015-Apr-24 09:34N 59°20' E 018°05'0 0.0
2015-Apr-24 08:33N 59°20' E 018°05'0 0.0
2015-Apr-24 07:34N 59°20' E 018°05'0 0.0
2015-Apr-24 06:33N 59°20' E 018°05'0 0.0
2015-Apr-24 05:33N 59°20' E 018°05'0 0.0
2015-Apr-24 04:34N 59°20' E 018°05'0 0.0
2015-Apr-24 03:33N 59°20' E 018°05'0 0.0
2015-Apr-24 02:33N 59°20' E 018°05'0 0.0
2015-Apr-24 01:33N 59°20' E 018°05'0 0.0
2015-Apr-24 00:34N 59°20' E 018°05'0 0.0
2015-Apr-23 23:34N 59°20' E 018°05'0 0.0
2015-Apr-23 22:34N 59°20' E 018°05'0 0.0
2015-Apr-23 21:34N 59°20' E 018°05'0 0.0
2015-Apr-23 20:34N 59°20' E 018°05'0 0.0
2015-Apr-23 19:34N 59°20' E 018°05'0 0.0
2015-Apr-23 18:34N 59°20' E 018°05'0 0.0
2015-Apr-23 17:33N 59°20' E 018°05'0 0.0
2015-Apr-23 16:34N 59°20' E 018°05'0 0.0
2015-Apr-23 15:34N 59°20' E 018°05'0 0.0
2015-Apr-23 14:33N 59°20' E 018°05'0 0.0
2015-Apr-23 13:33N 59°20' E 018°05'0 0.0
2015-Apr-23 12:33N 59°20' E 018°05'0 0.0
2015-Apr-23 11:33N 59°20' E 018°05'0 0.0
2015-Apr-23 10:33N 59°20' E 018°05'0 0.0
2015-Apr-23 09:33N 59°20' E 018°05'0 0.0
2015-Apr-23 08:33N 59°20' E 018°05'0 0.0
2015-Apr-23 07:33N 59°20' E 018°05'0 0.0
2015-Apr-23 06:33N 59°20' E 018°05'0 0.0
2015-Apr-23 05:33N 59°20' E 018°05'0 0.0
2015-Apr-23 04:33N 59°20' E 018°05'0 0.0
2015-Apr-23 03:33N 59°20' E 018°05'0 0.0
2015-Apr-23 02:33N 59°20' E 018°05'0 0.0
2015-Apr-23 01:33N 59°20' E 018°05'0 0.0
2015-Apr-23 00:34N 59°20' E 018°05'0 0.0
2015-Apr-22 23:34N 59°20' E 018°05'0 0.0
2015-Apr-22 22:33N 59°20' E 018°05'0 0.0
2015-Apr-22 21:33N 59°20' E 018°05'0 0.0
2015-Apr-22 20:33N 59°20' E 018°05'0 0.0
2015-Apr-22 19:33N 59°20' E 018°05'0 0.0
2015-Apr-22 18:33N 59°20' E 018°05'0 0.0
2015-Apr-22 17:33N 59°20' E 018°05'0 0.0
2015-Apr-22 16:34N 59°20' E 018°05'0 0.0
2015-Apr-22 15:33N 59°20' E 018°05'0 0.0
2015-Apr-22 14:33N 59°20' E 018°05'0 0.0
2015-Apr-22 13:33N 59°20' E 018°05'0 0.0
2015-Apr-22 12:33N 59°20' E 018°05'0 0.0
2015-Apr-22 11:33N 59°20' E 018°05'0 0.0
2015-Apr-22 10:33N 59°20' E 018°05'0 0.0
2015-Apr-22 09:33N 59°20' E 018°05'0 0.0
2015-Apr-22 08:33N 59°20' E 018°05'0 0.0
2015-Apr-22 07:33N 59°20' E 018°05'0 0.0
2015-Apr-22 06:33N 59°20' E 018°05'0 0.0
2015-Apr-22 05:33N 59°20' E 018°05'0 0.0
2015-Apr-22 04:33N 59°20' E 018°05'0 0.0
2015-Apr-22 03:33N 59°20' E 018°05'0 0.0
2015-Apr-22 02:33N 59°20' E 018°05'0 0.0
2015-Apr-22 01:33N 59°20' E 018°05'0 0.0
2015-Apr-22 00:33N 59°20' E 018°05'0 0.0
2015-Apr-21 23:33N 59°20' E 018°05'0 0.0
2015-Apr-21 22:33N 59°20' E 018°05'0 0.0
2015-Apr-21 21:33N 59°20' E 018°05'0 0.0
2015-Apr-21 20:33N 59°20' E 018°05'0 0.0
2015-Apr-21 19:33N 59°20' E 018°05'0 0.0
2015-Apr-21 18:33N 59°20' E 018°05'0 0.0
2015-Apr-21 17:34N 59°20' E 018°05'0 0.0
2015-Apr-21 16:33N 59°20' E 018°05'0 0.0
2015-Apr-21 15:33N 59°20' E 018°05'0 0.0
2015-Apr-21 14:33N 59°20' E 018°05'0 0.0
2015-Apr-21 13:33N 59°20' E 018°05'0 0.0
2015-Apr-21 12:33N 59°20' E 018°05'0 0.0
2015-Apr-21 11:33N 59°20' E 018°05'0 0.0
2015-Apr-21 10:34N 59°20' E 018°05'0 0.0
2015-Apr-21 09:33N 59°20' E 018°05'0 0.0
2015-Apr-21 08:33N 59°20' E 018°05'0 0.0
2015-Apr-21 07:33N 59°20' E 018°05'0 0.0
2015-Apr-21 06:33N 59°20' E 018°05'0 0.0
2015-Apr-21 05:34N 59°20' E 018°05'0 0.0
2015-Apr-21 04:33N 59°20' E 018°05'0 0.0
2015-Apr-21 03:33N 59°20' E 018°05'0 0.0
2015-Apr-21 02:33N 59°20' E 018°05'0 0.0
2015-Apr-21 01:33N 59°20' E 018°05'0 0.0
2015-Apr-21 00:33N 59°20' E 018°05'0 0.0
2015-Apr-20 23:33N 59°20' E 018°05'0 0.0
2015-Apr-20 22:33N 59°20' E 018°05'0 0.0
2015-Apr-20 21:33N 59°20' E 018°05'0 0.0
2015-Apr-20 20:33N 59°20' E 018°05'0 0.0
2015-Apr-20 19:33N 59°20' E 018°05'0 0.0
2015-Apr-20 18:33N 59°20' E 018°05'0 0.0
2015-Apr-20 17:34N 59°20' E 018°05'0 0.0
2015-Apr-20 16:33N 59°20' E 018°05'0 0.0
2015-Apr-20 15:33N 59°20' E 018°05'0 0.0
2015-Apr-20 14:33N 59°20' E 018°05'0 0.0
2015-Apr-20 13:33N 59°20' E 018°05'0 0.0
2015-Apr-20 12:34N 59°20' E 018°05'0 0.0
2015-Apr-20 11:33N 59°20' E 018°05'0 0.0
2015-Apr-20 10:33N 59°20' E 018°05'0 0.0
2015-Apr-20 09:33N 59°20' E 018°05'0 0.0
2015-Apr-20 08:33N 59°20' E 018°05'0 0.0
2015-Apr-20 07:33N 59°20' E 018°05'0 0.0
2015-Apr-20 06:33N 59°20' E 018°05'0 0.0
2015-Apr-20 05:33N 59°20' E 018°05'0 0.0
2015-Apr-20 04:33N 59°20' E 018°05'0 0.0
2015-Apr-20 03:33N 59°20' E 018°05'0 0.0
2015-Apr-20 02:33N 59°20' E 018°05'0 0.0
2015-Apr-20 01:33N 59°20' E 018°05'0 0.0
2015-Apr-20 00:33N 59°20' E 018°05'0 0.0
2015-Apr-19 23:33N 59°20' E 018°05'0 0.0
2015-Apr-19 22:33N 59°20' E 018°05'0 0.0
2015-Apr-19 21:33N 59°20' E 018°05'0 0.0
2015-Apr-19 20:33N 59°20' E 018°05'0 0.0
2015-Apr-19 19:33N 59°20' E 018°05'0 0.0
2015-Apr-19 18:33N 59°20' E 018°05'0 0.0
2015-Apr-19 17:33N 59°20' E 018°05'0 0.0
2015-Apr-19 16:34N 59°20' E 018°05'3 3.2
2015-Apr-19 15:33N 59°20' E 018°11'3 0.8
2015-Apr-19 11:29N 59°22' E 018°16'6 6.4
2015-Apr-19 10:33N 59°20' E 018°05'0 0.0
2015-Apr-19 09:33N 59°20' E 018°05'0 0.0
2015-Apr-19 08:33N 59°20' E 018°05'0 0.0
2015-Apr-19 07:33N 59°20' E 018°05'0 0.0
2015-Apr-19 06:33N 59°20' E 018°05'0 0.0
2015-Apr-19 05:33N 59°20' E 018°05'0 0.0
2015-Apr-19 04:33N 59°20' E 018°05'0 0.0
2015-Apr-19 03:33N 59°20' E 018°05'0 0.0
2015-Apr-19 02:33N 59°20' E 018°05'0 0.0
2015-Apr-19 01:33N 59°20' E 018°05'0 0.0
2015-Apr-19 00:33N 59°20' E 018°05'0 0.0
2015-Apr-18 23:33N 59°20' E 018°05'0 0.0
2015-Apr-18 22:33N 59°20' E 018°05'0 0.0
2015-Apr-18 21:33N 59°20' E 018°05'0 0.0
2015-Apr-18 20:33N 59°20' E 018°05'0 0.0
2015-Apr-18 19:33N 59°20' E 018°05'0 0.0
2015-Apr-18 18:33N 59°20' E 018°05'0 0.0
2015-Apr-18 17:33N 59°20' E 018°05'0 0.0
2015-Apr-18 16:33N 59°20' E 018°05'0 0.0
2015-Apr-18 15:33N 59°20' E 018°05'0 0.0
2015-Apr-18 14:33N 59°20' E 018°05'0 0.5
2015-Apr-18 13:33N 59°20' E 018°05'6 1.1
2015-Apr-18 08:32N 59°22' E 018°15'6 5.9
2015-Apr-18 07:33N 59°20' E 018°05'  

Dump ship's entire track history